sensor_id;sensor_type;location;lat;lon;timestamp;pressure;altitude;pressure_sealevel;temperature
20103;BMP180;10210;52.284;9.892;2022-11-11T00:00:33;101703.00;;;15.10
20103;BMP180;10210;52.284;9.892;2022-11-11T00:03:00;101698.00;;;15.00
20103;BMP180;10210;52.284;9.892;2022-11-11T00:05:27;101711.00;;;15.00
20103;BMP180;10210;52.284;9.892;2022-11-11T00:07:56;101702.00;;;15.00
20103;BMP180;10210;52.284;9.892;2022-11-11T00:10:25;101720.00;;;15.00
20103;BMP180;10210;52.284;9.892;2022-11-11T00:12:51;101726.00;;;14.90
20103;BMP180;10210;52.284;9.892;2022-11-11T00:15:17;101725.00;;;14.90
20103;BMP180;10210;52.284;9.892;2022-11-11T00:17:43;101733.00;;;14.90
20103;BMP180;10210;52.284;9.892;2022-11-11T00:20:27;101730.00;;;14.90
20103;BMP180;10210;52.284;9.892;2022-11-11T00:23:23;101724.00;;;14.80
20103;BMP180;10210;52.284;9.892;2022-11-11T00:26:10;101735.00;;;14.80
20103;BMP180;10210;52.284;9.892;2022-11-11T00:28:37;101728.00;;;14.80
20103;BMP180;10210;52.284;9.892;2022-11-11T00:31:13;101730.00;;;14.80
20103;BMP180;10210;52.284;9.892;2022-11-11T00:33:40;101731.00;;;14.80
20103;BMP180;10210;52.284;9.892;2022-11-11T00:36:07;101731.00;;;14.80
20103;BMP180;10210;52.284;9.892;2022-11-11T00:38:33;101735.00;;;14.80
20103;BMP180;10210;52.284;9.892;2022-11-11T00:41:19;101728.00;;;14.70
20103;BMP180;10210;52.284;9.892;2022-11-11T00:43:46;101727.00;;;14.70
20103;BMP180;10210;52.284;9.892;2022-11-11T00:46:15;101722.00;;;14.70
20103;BMP180;10210;52.284;9.892;2022-11-11T00:49:00;101730.00;;;14.70
20103;BMP180;10210;52.284;9.892;2022-11-11T00:51:45;101730.00;;;14.70
20103;BMP180;10210;52.284;9.892;2022-11-11T00:54:11;101723.00;;;14.70
20103;BMP180;10210;52.284;9.892;2022-11-11T00:56:38;101718.00;;;14.70
20103;BMP180;10210;52.284;9.892;2022-11-11T00:59:06;101727.00;;;14.70
20103;BMP180;10210;52.284;9.892;2022-11-11T01:01:34;101729.00;;;14.70
20103;BMP180;10210;52.284;9.892;2022-11-11T01:04:01;101734.00;;;14.70
20103;BMP180;10210;52.284;9.892;2022-11-11T01:06:27;101723.00;;;14.70
20103;BMP180;10210;52.284;9.892;2022-11-11T01:08:53;101720.00;;;14.60
20103;BMP180;10210;52.284;9.892;2022-11-11T01:11:22;101719.00;;;14.60
20103;BMP180;10210;52.284;9.892;2022-11-11T01:13:49;101730.00;;;14.60
20103;BMP180;10210;52.284;9.892;2022-11-11T01:16:23;101726.00;;;14.60
20103;BMP180;10210;52.284;9.892;2022-11-11T01:18:50;101742.00;;;14.60
20103;BMP180;10210;52.284;9.892;2022-11-11T01:21:20;101735.00;;;14.60
20103;BMP180;10210;52.284;9.892;2022-11-11T01:23:48;101748.00;;;14.60
20103;BMP180;10210;52.284;9.892;2022-11-11T01:26:26;101743.00;;;14.50
20103;BMP180;10210;52.284;9.892;2022-11-11T01:28:54;101749.00;;;14.50
20103;BMP180;10210;52.284;9.892;2022-11-11T01:31:23;101743.00;;;14.50
20103;BMP180;10210;52.284;9.892;2022-11-11T01:33:50;101738.00;;;14.50
20103;BMP180;10210;52.284;9.892;2022-11-11T01:36:23;101735.00;;;14.50
20103;BMP180;10210;52.284;9.892;2022-11-11T01:39:08;101735.00;;;14.50
20103;BMP180;10210;52.284;9.892;2022-11-11T01:41:35;101738.00;;;14.50
20103;BMP180;10210;52.284;9.892;2022-11-11T01:44:45;101747.00;;;14.40
20103;BMP180;10210;52.284;9.892;2022-11-11T01:47:15;101734.00;;;14.40
20103;BMP180;10210;52.284;9.892;2022-11-11T01:49:56;101737.00;;;14.40
20103;BMP180;10210;52.284;9.892;2022-11-11T01:52:29;101739.00;;;14.40
20103;BMP180;10210;52.284;9.892;2022-11-11T01:55:09;101741.00;;;14.40
20103;BMP180;10210;52.284;9.892;2022-11-11T01:57:59;101727.00;;;14.40
20103;BMP180;10210;52.284;9.892;2022-11-11T02:00:25;101735.00;;;14.40
20103;BMP180;10210;52.284;9.892;2022-11-11T02:02:57;101746.00;;;14.40
20103;BMP180;10210;52.284;9.892;2022-11-11T02:05:25;101746.00;;;14.40
20103;BMP180;10210;52.284;9.892;2022-11-11T02:08:30;101734.00;;;14.30
20103;BMP180;10210;52.284;9.892;2022-11-11T02:11:26;101732.00;;;14.30
20103;BMP180;10210;52.284;9.892;2022-11-11T02:14:12;101733.00;;;14.30
20103;BMP180;10210;52.284;9.892;2022-11-11T02:16:56;101734.00;;;14.30
20103;BMP180;10210;52.284;9.892;2022-11-11T02:19:45;101727.00;;;14.30
20103;BMP180;10210;52.284;9.892;2022-11-11T02:22:48;101728.00;;;14.20
20103;BMP180;10210;52.284;9.892;2022-11-11T02:25:31;101721.00;;;14.20
20103;BMP180;10210;52.284;9.892;2022-11-11T02:28:04;101731.00;;;14.20
20103;BMP180;10210;52.284;9.892;2022-11-11T02:30:31;101729.00;;;14.30
20103;BMP180;10210;52.284;9.892;2022-11-11T02:32:57;101736.00;;;14.30
20103;BMP180;10210;52.284;9.892;2022-11-11T02:35:36;101736.00;;;14.20
20103;BMP180;10210;52.284;9.892;2022-11-11T02:38:06;101745.00;;;14.20
20103;BMP180;10210;52.284;9.892;2022-11-11T02:40:44;101760.00;;;14.20
20103;BMP180;10210;52.284;9.892;2022-11-11T02:43:31;101773.00;;;14.20
20103;BMP180;10210;52.284;9.892;2022-11-11T02:45:58;101775.00;;;14.20
20103;BMP180;10210;52.284;9.892;2022-11-11T02:48:26;101779.00;;;14.20
20103;BMP180;10210;52.284;9.892;2022-11-11T02:50:52;101766.00;;;14.20
20103;BMP180;10210;52.284;9.892;2022-11-11T02:53:18;101774.00;;;14.20
20103;BMP180;10210;52.284;9.892;2022-11-11T02:55:44;101777.00;;;14.20
20103;BMP180;10210;52.284;9.892;2022-11-11T02:58:10;101776.00;;;14.20
20103;BMP180;10210;52.284;9.892;2022-11-11T03:00:44;101776.00;;;14.20
20103;BMP180;10210;52.284;9.892;2022-11-11T03:03:10;101780.00;;;14.20
20103;BMP180;10210;52.284;9.892;2022-11-11T03:05:36;101768.00;;;14.20
20103;BMP180;10210;52.284;9.892;2022-11-11T03:08:02;101766.00;;;14.20
20103;BMP180;10210;52.284;9.892;2022-11-11T03:10:28;101762.00;;;14.20
20103;BMP180;10210;52.284;9.892;2022-11-11T03:12:55;101767.00;;;14.20
20103;BMP180;10210;52.284;9.892;2022-11-11T03:15:21;101771.00;;;14.20
20103;BMP180;10210;52.284;9.892;2022-11-11T03:17:47;101760.00;;;14.10
20103;BMP180;10210;52.284;9.892;2022-11-11T03:20:18;101759.00;;;14.10
20103;BMP180;10210;52.284;9.892;2022-11-11T03:23:13;101762.00;;;14.10
20103;BMP180;10210;52.284;9.892;2022-11-11T03:25:43;101749.00;;;14.10
20103;BMP180;10210;52.284;9.892;2022-11-11T03:28:18;101743.00;;;14.10
20103;BMP180;10210;52.284;9.892;2022-11-11T03:30:48;101736.00;;;14.10
20103;BMP180;10210;52.284;9.892;2022-11-11T03:33:18;101744.00;;;14.00
20103;BMP180;10210;52.284;9.892;2022-11-11T03:35:46;101751.00;;;14.00
20103;BMP180;10210;52.284;9.892;2022-11-11T03:38:14;101758.00;;;14.00
20103;BMP180;10210;52.284;9.892;2022-11-11T03:40:55;101756.00;;;14.00
20103;BMP180;10210;52.284;9.892;2022-11-11T03:43:32;101747.00;;;14.00
20103;BMP180;10210;52.284;9.892;2022-11-11T03:46:01;101744.00;;;14.00
20103;BMP180;10210;52.284;9.892;2022-11-11T03:48:31;101737.00;;;14.00
20103;BMP180;10210;52.284;9.892;2022-11-11T03:50:57;101746.00;;;14.00
20103;BMP180;10210;52.284;9.892;2022-11-11T03:53:22;101743.00;;;14.00
20103;BMP180;10210;52.284;9.892;2022-11-11T03:55:50;101740.00;;;14.00
20103;BMP180;10210;52.284;9.892;2022-11-11T03:58:16;101740.00;;;14.00
20103;BMP180;10210;52.284;9.892;2022-11-11T04:00:43;101732.00;;;14.00
20103;BMP180;10210;52.284;9.892;2022-11-11T04:03:15;101732.00;;;14.00
20103;BMP180;10210;52.284;9.892;2022-11-11T04:06:00;101738.00;;;14.00
20103;BMP180;10210;52.284;9.892;2022-11-11T04:08:45;101729.00;;;14.00
20103;BMP180;10210;52.284;9.892;2022-11-11T04:11:35;101736.00;;;14.00
20103;BMP180;10210;52.284;9.892;2022-11-11T04:14:09;101724.00;;;14.00
20103;BMP180;10210;52.284;9.892;2022-11-11T04:16:54;101728.00;;;14.00
20103;BMP180;10210;52.284;9.892;2022-11-11T04:19:19;101734.00;;;14.00
20103;BMP180;10210;52.284;9.892;2022-11-11T04:22:04;101739.00;;;14.10
20103;BMP180;10210;52.284;9.892;2022-11-11T04:24:32;101747.00;;;14.10
20103;BMP180;10210;52.284;9.892;2022-11-11T04:27:20;101745.00;;;14.10
20103;BMP180;10210;52.284;9.892;2022-11-11T04:29:49;101757.00;;;14.10
20103;BMP180;10210;52.284;9.892;2022-11-11T04:32:20;101753.00;;;14.10
20103;BMP180;10210;52.284;9.892;2022-11-11T04:35:12;101746.00;;;14.10
20103;BMP180;10210;52.284;9.892;2022-11-11T04:37:57;101747.00;;;14.10
20103;BMP180;10210;52.284;9.892;2022-11-11T04:40:42;101761.00;;;14.10
20103;BMP180;10210;52.284;9.892;2022-11-11T04:43:26;101767.00;;;14.10
20103;BMP180;10210;52.284;9.892;2022-11-11T04:45:52;101764.00;;;14.20
20103;BMP180;10210;52.284;9.892;2022-11-11T04:48:18;101752.00;;;14.20
20103;BMP180;10210;52.284;9.892;2022-11-11T04:50:45;101748.00;;;14.20
20103;BMP180;10210;52.284;9.892;2022-11-11T04:53:13;101747.00;;;14.20
20103;BMP180;10210;52.284;9.892;2022-11-11T04:55:41;101742.00;;;14.20
20103;BMP180;10210;52.284;9.892;2022-11-11T04:58:32;101744.00;;;14.20
20103;BMP180;10210;52.284;9.892;2022-11-11T05:00:59;101748.00;;;14.20
20103;BMP180;10210;52.284;9.892;2022-11-11T05:03:25;101746.00;;;14.10
20103;BMP180;10210;52.284;9.892;2022-11-11T05:05:56;101742.00;;;14.10
20103;BMP180;10210;52.284;9.892;2022-11-11T05:08:47;101741.00;;;14.10
20103;BMP180;10210;52.284;9.892;2022-11-11T05:11:34;101748.00;;;14.10
20103;BMP180;10210;52.284;9.892;2022-11-11T05:14:05;101752.00;;;14.10
20103;BMP180;10210;52.284;9.892;2022-11-11T05:16:58;101760.00;;;14.10
20103;BMP180;10210;52.284;9.892;2022-11-11T05:19:43;101770.00;;;14.10
20103;BMP180;10210;52.284;9.892;2022-11-11T05:22:39;101760.00;;;14.10
20103;BMP180;10210;52.284;9.892;2022-11-11T05:25:07;101768.00;;;14.10
20103;BMP180;10210;52.284;9.892;2022-11-11T05:27:55;101779.00;;;14.10
20103;BMP180;10210;52.284;9.892;2022-11-11T05:30:23;101770.00;;;14.10
20103;BMP180;10210;52.284;9.892;2022-11-11T05:32:49;101782.00;;;14.10
20103;BMP180;10210;52.284;9.892;2022-11-11T05:35:16;101786.00;;;14.10
20103;BMP180;10210;52.284;9.892;2022-11-11T05:37:43;101785.00;;;14.10
20103;BMP180;10210;52.284;9.892;2022-11-11T05:40:10;101787.00;;;14.10
20103;BMP180;10210;52.284;9.892;2022-11-11T05:42:41;101784.00;;;14.00
20103;BMP180;10210;52.284;9.892;2022-11-11T05:45:08;101785.00;;;14.00
20103;BMP180;10210;52.284;9.892;2022-11-11T05:47:34;101778.00;;;14.00
20103;BMP180;10210;52.284;9.892;2022-11-11T05:50:00;101778.00;;;13.90
20103;BMP180;10210;52.284;9.892;2022-11-11T05:52:26;101781.00;;;14.00
20103;BMP180;10210;52.284;9.892;2022-11-11T05:54:51;101771.00;;;13.90
20103;BMP180;10210;52.284;9.892;2022-11-11T05:57:17;101765.00;;;13.90
20103;BMP180;10210;52.284;9.892;2022-11-11T05:59:42;101774.00;;;13.90
20103;BMP180;10210;52.284;9.892;2022-11-11T06:02:08;101779.00;;;13.90
20103;BMP180;10210;52.284;9.892;2022-11-11T06:04:35;101785.00;;;13.90
20103;BMP180;10210;52.284;9.892;2022-11-11T06:07:00;101774.00;;;13.80
20103;BMP180;10210;52.284;9.892;2022-11-11T06:09:27;101780.00;;;13.80
20103;BMP180;10210;52.284;9.892;2022-11-11T06:11:53;101782.00;;;13.80
20103;BMP180;10210;52.284;9.892;2022-11-11T06:14:19;101780.00;;;13.70
20103;BMP180;10210;52.284;9.892;2022-11-11T06:16:44;101783.00;;;13.70
20103;BMP180;10210;52.284;9.892;2022-11-11T06:19:10;101786.00;;;13.70
20103;BMP180;10210;52.284;9.892;2022-11-11T06:21:36;101792.00;;;13.60
20103;BMP180;10210;52.284;9.892;2022-11-11T06:24:21;101789.00;;;13.60
20103;BMP180;10210;52.284;9.892;2022-11-11T06:26:47;101795.00;;;13.60
20103;BMP180;10210;52.284;9.892;2022-11-11T06:29:13;101805.00;;;13.60
20103;BMP180;10210;52.284;9.892;2022-11-11T06:31:39;101808.00;;;13.60
20103;BMP180;10210;52.284;9.892;2022-11-11T06:34:04;101821.00;;;13.60
20103;BMP180;10210;52.284;9.892;2022-11-11T06:36:30;101815.00;;;13.50
20103;BMP180;10210;52.284;9.892;2022-11-11T06:38:55;101818.00;;;13.50
20103;BMP180;10210;52.284;9.892;2022-11-11T06:41:21;101814.00;;;13.50
20103;BMP180;10210;52.284;9.892;2022-11-11T06:43:50;101810.00;;;13.50
20103;BMP180;10210;52.284;9.892;2022-11-11T06:46:24;101809.00;;;13.40
20103;BMP180;10210;52.284;9.892;2022-11-11T06:48:50;101811.00;;;13.40
20103;BMP180;10210;52.284;9.892;2022-11-11T06:51:16;101811.00;;;13.40
20103;BMP180;10210;52.284;9.892;2022-11-11T06:53:43;101818.00;;;13.40
20103;BMP180;10210;52.284;9.892;2022-11-11T06:56:09;101826.00;;;13.40
20103;BMP180;10210;52.284;9.892;2022-11-11T06:58:37;101823.00;;;13.40
20103;BMP180;10210;52.284;9.892;2022-11-11T07:01:06;101824.00;;;13.40
20103;BMP180;10210;52.284;9.892;2022-11-11T07:03:34;101823.00;;;13.40
20103;BMP180;10210;52.284;9.892;2022-11-11T07:06:02;101822.00;;;13.40
20103;BMP180;10210;52.284;9.892;2022-11-11T07:08:28;101815.00;;;13.40
20103;BMP180;10210;52.284;9.892;2022-11-11T07:10:54;101827.00;;;13.40
20103;BMP180;10210;52.284;9.892;2022-11-11T07:13:20;101823.00;;;13.40
20103;BMP180;10210;52.284;9.892;2022-11-11T07:15:46;101821.00;;;13.40
20103;BMP180;10210;52.284;9.892;2022-11-11T07:18:14;101832.00;;;13.50
20103;BMP180;10210;52.284;9.892;2022-11-11T07:20:40;101828.00;;;13.50
20103;BMP180;10210;52.284;9.892;2022-11-11T07:23:06;101832.00;;;13.50
20103;BMP180;10210;52.284;9.892;2022-11-11T07:25:32;101829.00;;;13.50
20103;BMP180;10210;52.284;9.892;2022-11-11T07:27:58;101829.00;;;13.50
20103;BMP180;10210;52.284;9.892;2022-11-11T07:30:25;101837.00;;;13.60
20103;BMP180;10210;52.284;9.892;2022-11-11T07:32:52;101836.00;;;13.60
20103;BMP180;10210;52.284;9.892;2022-11-11T07:35:19;101843.00;;;13.60
20103;BMP180;10210;52.284;9.892;2022-11-11T07:37:45;101835.00;;;13.70
20103;BMP180;10210;52.284;9.892;2022-11-11T07:40:16;101842.00;;;13.70
20103;BMP180;10210;52.284;9.892;2022-11-11T07:42:43;101845.00;;;13.70
20103;BMP180;10210;52.284;9.892;2022-11-11T07:45:11;101844.00;;;13.80
20103;BMP180;10210;52.284;9.892;2022-11-11T07:47:37;101843.00;;;13.80
20103;BMP180;10210;52.284;9.892;2022-11-11T07:50:06;101841.00;;;13.80
20103;BMP180;10210;52.284;9.892;2022-11-11T07:52:33;101836.00;;;13.90
20103;BMP180;10210;52.284;9.892;2022-11-11T07:54:59;101826.00;;;13.90
20103;BMP180;10210;52.284;9.892;2022-11-11T07:57:25;101826.00;;;13.90
20103;BMP180;10210;52.284;9.892;2022-11-11T07:59:50;101830.00;;;13.90
20103;BMP180;10210;52.284;9.892;2022-11-11T08:02:16;101829.00;;;13.90
20103;BMP180;10210;52.284;9.892;2022-11-11T08:04:42;101830.00;;;14.00
20103;BMP180;10210;52.284;9.892;2022-11-11T08:07:08;101839.00;;;14.00
20103;BMP180;10210;52.284;9.892;2022-11-11T08:09:34;101845.00;;;14.10
20103;BMP180;10210;52.284;9.892;2022-11-11T08:12:00;101844.00;;;14.10
20103;BMP180;10210;52.284;9.892;2022-11-11T08:14:44;101841.00;;;14.10
20103;BMP180;10210;52.284;9.892;2022-11-11T08:17:10;101841.00;;;14.10
20103;BMP180;10210;52.284;9.892;2022-11-11T08:19:35;101848.00;;;14.10
20103;BMP180;10210;52.284;9.892;2022-11-11T08:22:01;101850.00;;;14.20
20103;BMP180;10210;52.284;9.892;2022-11-11T08:24:27;101846.00;;;14.20
20103;BMP180;10210;52.284;9.892;2022-11-11T08:26:52;101852.00;;;14.30
20103;BMP180;10210;52.284;9.892;2022-11-11T08:29:19;101854.00;;;14.30
20103;BMP180;10210;52.284;9.892;2022-11-11T08:31:45;101869.00;;;14.30
20103;BMP180;10210;52.284;9.892;2022-11-11T08:34:11;101860.00;;;14.40
20103;BMP180;10210;52.284;9.892;2022-11-11T08:36:37;101861.00;;;14.40
20103;BMP180;10210;52.284;9.892;2022-11-11T08:39:03;101870.00;;;14.50
20103;BMP180;10210;52.284;9.892;2022-11-11T08:41:29;101871.00;;;14.50
20103;BMP180;10210;52.284;9.892;2022-11-11T08:43:55;101870.00;;;14.50
20103;BMP180;10210;52.284;9.892;2022-11-11T08:46:22;101870.00;;;14.60
20103;BMP180;10210;52.284;9.892;2022-11-11T08:48:48;101870.00;;;14.60
20103;BMP180;10210;52.284;9.892;2022-11-11T08:51:15;101865.00;;;14.80
20103;BMP180;10210;52.284;9.892;2022-11-11T08:53:41;101857.00;;;14.90
20103;BMP180;10210;52.284;9.892;2022-11-11T08:56:07;101849.00;;;15.10
20103;BMP180;10210;52.284;9.892;2022-11-11T08:58:33;101855.00;;;15.30
20103;BMP180;10210;52.284;9.892;2022-11-11T09:01:00;101862.00;;;15.40
20103;BMP180;10210;52.284;9.892;2022-11-11T09:03:26;101870.00;;;15.60
20103;BMP180;10210;52.284;9.892;2022-11-11T09:05:52;101882.00;;;15.70
20103;BMP180;10210;52.284;9.892;2022-11-11T09:08:18;101881.00;;;15.90
20103;BMP180;10210;52.284;9.892;2022-11-11T09:10:44;101894.00;;;16.10
20103;BMP180;10210;52.284;9.892;2022-11-11T09:13:09;101888.00;;;16.20
20103;BMP180;10210;52.284;9.892;2022-11-11T09:15:35;101903.00;;;16.40
20103;BMP180;10210;52.284;9.892;2022-11-11T09:18:01;101899.00;;;16.50
20103;BMP180;10210;52.284;9.892;2022-11-11T09:20:28;101904.00;;;16.60
20103;BMP180;10210;52.284;9.892;2022-11-11T09:22:54;101908.00;;;16.80
20103;BMP180;10210;52.284;9.892;2022-11-11T09:25:21;101907.00;;;16.90
20103;BMP180;10210;52.284;9.892;2022-11-11T09:27:59;101924.00;;;17.00
20103;BMP180;10210;52.284;9.892;2022-11-11T09:30:27;101921.00;;;17.20
20103;BMP180;10210;52.284;9.892;2022-11-11T09:32:54;101919.00;;;17.30
20103;BMP180;10210;52.284;9.892;2022-11-11T09:35:20;101922.00;;;17.40
20103;BMP180;10210;52.284;9.892;2022-11-11T09:37:58;101923.00;;;17.40
20103;BMP180;10210;52.284;9.892;2022-11-11T09:40:34;101928.00;;;17.50
20103;BMP180;10210;52.284;9.892;2022-11-11T09:43:29;101920.00;;;17.60
20103;BMP180;10210;52.284;9.892;2022-11-11T09:46:16;101934.00;;;17.60
20103;BMP180;10210;52.284;9.892;2022-11-11T09:52:03;101939.00;;;17.70
20103;BMP180;10210;52.284;9.892;2022-11-11T09:54:58;101933.00;;;17.70
20103;BMP180;10210;52.284;9.892;2022-11-11T09:57:40;101936.00;;;17.80
20103;BMP180;10210;52.284;9.892;2022-11-11T10:00:20;101939.00;;;17.80
20103;BMP180;10210;52.284;9.892;2022-11-11T10:03:37;101943.00;;;17.90
20103;BMP180;10210;52.284;9.892;2022-11-11T10:06:12;101943.00;;;17.80
20103;BMP180;10210;52.284;9.892;2022-11-11T10:09:01;101939.00;;;17.80
20103;BMP180;10210;52.284;9.892;2022-11-11T10:12:05;101943.00;;;17.80
20103;BMP180;10210;52.284;9.892;2022-11-11T10:14:37;101937.00;;;17.80
20103;BMP180;10210;52.284;9.892;2022-11-11T10:20:18;101955.00;;;17.70
20103;BMP180;10210;52.284;9.892;2022-11-11T10:22:54;101955.00;;;17.70
20103;BMP180;10210;52.284;9.892;2022-11-11T10:25:25;101955.00;;;17.70
20103;BMP180;10210;52.284;9.892;2022-11-11T10:27:55;101965.00;;;17.70
20103;BMP180;10210;52.284;9.892;2022-11-11T10:30:26;101960.00;;;17.70
20103;BMP180;10210;52.284;9.892;2022-11-11T10:33:18;101967.00;;;17.70
20103;BMP180;10210;52.284;9.892;2022-11-11T10:35:49;101959.00;;;17.70
20103;BMP180;10210;52.284;9.892;2022-11-11T10:38:58;101969.00;;;17.70
20103;BMP180;10210;52.284;9.892;2022-11-11T10:41:42;101960.00;;;17.70
20103;BMP180;10210;52.284;9.892;2022-11-11T10:44:32;101965.00;;;17.70
20103;BMP180;10210;52.284;9.892;2022-11-11T10:50:15;101963.00;;;17.80
20103;BMP180;10210;52.284;9.892;2022-11-11T10:53:23;101962.00;;;17.80
20103;BMP180;10210;52.284;9.892;2022-11-11T10:55:59;101955.00;;;17.90
20103;BMP180;10210;52.284;9.892;2022-11-11T10:58:40;101956.00;;;18.00
20103;BMP180;10210;52.284;9.892;2022-11-11T11:01:15;101969.00;;;18.10
20103;BMP180;10210;52.284;9.892;2022-11-11T11:03:49;101970.00;;;18.20
20103;BMP180;10210;52.284;9.892;2022-11-11T11:06:32;101970.00;;;18.20
20103;BMP180;10210;52.284;9.892;2022-11-11T11:09:09;101963.00;;;18.30
20103;BMP180;10210;52.284;9.892;2022-11-11T11:11:49;101964.00;;;18.30
20103;BMP180;10210;52.284;9.892;2022-11-11T11:14:23;101964.00;;;18.30
20103;BMP180;10210;52.284;9.892;2022-11-11T11:16:53;101955.00;;;18.30
20103;BMP180;10210;52.284;9.892;2022-11-11T11:19:27;101955.00;;;18.40
20103;BMP180;10210;52.284;9.892;2022-11-11T11:21:59;101944.00;;;18.40
20103;BMP180;10210;52.284;9.892;2022-11-11T11:24:33;101947.00;;;18.40
20103;BMP180;10210;52.284;9.892;2022-11-11T11:27:05;101943.00;;;18.40
20103;BMP180;10210;52.284;9.892;2022-11-11T11:29:41;101946.00;;;18.50
20103;BMP180;10210;52.284;9.892;2022-11-11T11:32:27;101940.00;;;18.40
20103;BMP180;10210;52.284;9.892;2022-11-11T11:34:55;101952.00;;;18.50
20103;BMP180;10210;52.284;9.892;2022-11-11T11:37:24;101954.00;;;18.60
20103;BMP180;10210;52.284;9.892;2022-11-11T11:40:07;101956.00;;;18.60
20103;BMP180;10210;52.284;9.892;2022-11-11T11:42:36;101950.00;;;18.60
20103;BMP180;10210;52.284;9.892;2022-11-11T11:48:04;101956.00;;;18.70
20103;BMP180;10210;52.284;9.892;2022-11-11T11:53:54;101953.00;;;18.70
20103;BMP180;10210;52.284;9.892;2022-11-11T11:56:42;101958.00;;;18.80
20103;BMP180;10210;52.284;9.892;2022-11-11T12:02:09;101953.00;;;18.90
20103;BMP180;10210;52.284;9.892;2022-11-11T12:11:08;101959.00;;;19.00
20103;BMP180;10210;52.284;9.892;2022-11-11T12:16:42;101954.00;;;19.10
20103;BMP180;10210;52.284;9.892;2022-11-11T12:19:56;101967.00;;;19.10
20103;BMP180;10210;52.284;9.892;2022-11-11T12:26:00;101962.00;;;19.10
20103;BMP180;10210;52.284;9.892;2022-11-11T12:28:51;101961.00;;;19.20
20103;BMP180;10210;52.284;9.892;2022-11-11T12:32:07;101953.00;;;19.20
20103;BMP180;10210;52.284;9.892;2022-11-11T12:37:58;101956.00;;;19.20
20103;BMP180;10210;52.284;9.892;2022-11-11T12:44:10;101966.00;;;19.30
20103;BMP180;10210;52.284;9.892;2022-11-11T12:50:30;101964.00;;;19.30
20103;BMP180;10210;52.284;9.892;2022-11-11T12:56:06;101971.00;;;19.30
20103;BMP180;10210;52.284;9.892;2022-11-11T13:01:28;101960.00;;;19.40
20103;BMP180;10210;52.284;9.892;2022-11-11T13:04:34;101952.00;;;19.40
20103;BMP180;10210;52.284;9.892;2022-11-11T13:07:58;101958.00;;;19.40
20103;BMP180;10210;52.284;9.892;2022-11-11T13:13:53;101969.00;;;19.40
20103;BMP180;10210;52.284;9.892;2022-11-11T13:16:23;101969.00;;;19.50
20103;BMP180;10210;52.284;9.892;2022-11-11T13:19:03;101957.00;;;19.50
20103;BMP180;10210;52.284;9.892;2022-11-11T13:21:45;101964.00;;;19.50
20103;BMP180;10210;52.284;9.892;2022-11-11T13:24:19;101957.00;;;19.50
20103;BMP180;10210;52.284;9.892;2022-11-11T13:27:10;101957.00;;;19.50
20103;BMP180;10210;52.284;9.892;2022-11-11T13:32:46;101966.00;;;19.50
20103;BMP180;10210;52.284;9.892;2022-11-11T13:35:34;101969.00;;;19.50
20103;BMP180;10210;52.284;9.892;2022-11-11T13:38:01;101970.00;;;19.60
20103;BMP180;10210;52.284;9.892;2022-11-11T13:40:34;101966.00;;;19.60
20103;BMP180;10210;52.284;9.892;2022-11-11T13:43:02;101963.00;;;19.60
20103;BMP180;10210;52.284;9.892;2022-11-11T13:45:36;101965.00;;;19.60
20103;BMP180;10210;52.284;9.892;2022-11-11T13:48:03;101964.00;;;19.60
20103;BMP180;10210;52.284;9.892;2022-11-11T13:50:35;101961.00;;;19.60
20103;BMP180;10210;52.284;9.892;2022-11-11T13:53:04;101969.00;;;19.60
20103;BMP180;10210;52.284;9.892;2022-11-11T13:55:45;101966.00;;;19.60
20103;BMP180;10210;52.284;9.892;2022-11-11T13:58:26;101968.00;;;19.60
20103;BMP180;10210;52.284;9.892;2022-11-11T14:01:06;101962.00;;;19.60
20103;BMP180;10210;52.284;9.892;2022-11-11T14:04:02;101968.00;;;19.50
20103;BMP180;10210;52.284;9.892;2022-11-11T14:06:47;101961.00;;;19.50
20103;BMP180;10210;52.284;9.892;2022-11-11T14:09:52;101966.00;;;19.40
20103;BMP180;10210;52.284;9.892;2022-11-11T14:20:51;101964.00;;;19.40
20103;BMP180;10210;52.284;9.892;2022-11-11T14:28:36;101971.00;;;19.40
20103;BMP180;10210;52.284;9.892;2022-11-11T14:34:51;101967.00;;;19.20
20103;BMP180;10210;52.284;9.892;2022-11-11T14:40:26;101971.00;;;19.20
20103;BMP180;10210;52.284;9.892;2022-11-11T14:42:52;101971.00;;;19.20
20103;BMP180;10210;52.284;9.892;2022-11-11T14:47:57;101961.00;;;19.20
20103;BMP180;10210;52.284;9.892;2022-11-11T14:53:12;101967.00;;;19.10
20103;BMP180;10210;52.284;9.892;2022-11-11T14:55:40;101981.00;;;19.10
20103;BMP180;10210;52.284;9.892;2022-11-11T14:58:15;101968.00;;;19.10
20103;BMP180;10210;52.284;9.892;2022-11-11T15:01:15;101977.00;;;19.00
20103;BMP180;10210;52.284;9.892;2022-11-11T15:03:51;101974.00;;;19.00
20103;BMP180;10210;52.284;9.892;2022-11-11T15:06:39;101978.00;;;19.00
20103;BMP180;10210;52.284;9.892;2022-11-11T15:09:55;101978.00;;;18.90
20103;BMP180;10210;52.284;9.892;2022-11-11T15:21:33;101972.00;;;18.80
20103;BMP180;10210;52.284;9.892;2022-11-11T15:24:31;101966.00;;;18.70
20103;BMP180;10210;52.284;9.892;2022-11-11T15:27:42;101973.00;;;18.60
20103;BMP180;10210;52.284;9.892;2022-11-11T15:30:20;101974.00;;;18.60
20103;BMP180;10210;52.284;9.892;2022-11-11T15:33:11;101975.00;;;18.60
20103;BMP180;10210;52.284;9.892;2022-11-11T15:38:17;101975.00;;;18.50
20103;BMP180;10210;52.284;9.892;2022-11-11T15:40:56;101982.00;;;18.50
20103;BMP180;10210;52.284;9.892;2022-11-11T15:43:32;101984.00;;;18.50
20103;BMP180;10210;52.284;9.892;2022-11-11T15:46:04;101980.00;;;18.40
20103;BMP180;10210;52.284;9.892;2022-11-11T15:48:42;101975.00;;;18.40
20103;BMP180;10210;52.284;9.892;2022-11-11T15:53:47;101987.00;;;18.30
20103;BMP180;10210;52.284;9.892;2022-11-11T15:56:31;101988.00;;;18.20
20103;BMP180;10210;52.284;9.892;2022-11-11T15:59:14;101988.00;;;18.20
20103;BMP180;10210;52.284;9.892;2022-11-11T16:01:41;101984.00;;;18.20
20103;BMP180;10210;52.284;9.892;2022-11-11T16:04:09;101984.00;;;18.20
20103;BMP180;10210;52.284;9.892;2022-11-11T16:06:39;101982.00;;;18.10
20103;BMP180;10210;52.284;9.892;2022-11-11T16:09:09;101989.00;;;18.10